Time,TemperatureF,DewpointF,PressureIn,WindDirection,WindDirectionDegrees,WindSpeedMPH,WindSpeedGustMPH,Humidity,HourlyPrecipIn,Conditions,Clouds,dailyrainin,SoftwareType,DateUTC
2013-04-14 00:00:00,50.7,45.7,29.82,South,185,0.0,0.0,83,0.00,,CLR,0.00,VWS V14.00,2013-04-14 07:00:00,
2013-04-14 00:06:00,50.7,45.7,29.82,South,185,0.0,0.0,83,0.00,,CLR,0.00,VWS V14.00,2013-04-14 07:06:00,
2013-04-14 00:11:00,50.6,45.6,29.82,South,185,0.0,0.0,83,0.00,,CLR,0.00,VWS V14.00,2013-04-14 07:11:00,
2013-04-14 00:16:00,50.4,45.4,29.82,South,186,0.0,1.0,83,0.00,,CLR,0.00,VWS V14.00,2013-04-14 07:16:00,
2013-04-14 00:21:00,50.4,45.4,29.82,South,184,0.0,1.0,83,0.00,,CLR,0.00,VWS V14.00,2013-04-14 07:21:00,
2013-04-14 00:26:00,50.4,45.4,29.82,South,185,0.0,1.0,83,0.00,,CLR,0.00,VWS V14.00,2013-04-14 07:26:00,
2013-04-14 00:30:00,50.4,45.4,29.82,South,185,0.0,1.0,83,0.00,,CLR,0.00,VWS V14.00,2013-04-14 07:30:00,
2013-04-14 00:31:00,50.4,45.4,29.81,South,185,0.0,0.0,83,0.00,,CLR,0.00,VWS V14.00,2013-04-14 07:31:00,
2013-04-14 00:36:00,50.2,45.2,29.81,South,185,0.0,0.0,83,0.00,,CLR,0.00,VWS V14.00,2013-04-14 07:36:00,
2013-04-14 00:41:00,50.1,45.2,29.82,South,184,0.0,0.0,83,0.00,,CLR,0.00,VWS V14.00,2013-04-14 07:41:00,
2013-04-14 00:46:00,50.1,45.5,29.82,South,185,0.0,0.0,84,0.00,,CLR,0.00,VWS V14.00,2013-04-14 07:46:00,
2013-04-14 00:51:00,50.1,45.2,29.82,South,185,0.0,0.0,83,0.00,,CLR,0.00,VWS V14.00,2013-04-14 07:51:00,
2013-04-14 00:56:00,50.0,45.0,29.82,South,184,0.0,0.0,83,0.00,,CLR,0.00,VWS V14.00,2013-04-14 07:56:00,
2013-04-14 01:00:00,50.3,45.7,29.82,South,186,0.0,0.0,84,0.00,,CLR,0.00,VWS V14.00,2013-04-14 08:00:00,
2013-04-14 01:01:00,50.1,45.2,29.82,South,185,0.0,0.0,83,0.00,,CLR,0.00,VWS V14.00,2013-04-14 08:01:00,
2013-04-14 01:06:00,50.0,45.4,29.82,South,185,1.0,1.0,84,0.00,,CLR,0.00,VWS V14.00,2013-04-14 08:06:00,
2013-04-14 01:11:00,49.8,45.2,29.82,South,185,0.0,1.0,84,0.00,,CLR,0.00,VWS V14.00,2013-04-14 08:11:00,
2013-04-14 01:16:00,49.8,45.2,29.82,South,185,0.0,1.0,84,0.00,,CLR,0.00,VWS V14.00,2013-04-14 08:16:00,
2013-04-14 01:21:00,49.8,45.2,29.81,South,185,0.0,1.0,84,0.00,,CLR,0.00,VWS V14.00,2013-04-14 08:21:00,
2013-04-14 01:26:00,49.7,45.1,29.81,South,185,0.0,1.0,84,0.00,,CLR,0.00,VWS V14.00,2013-04-14 08:26:00,
2013-04-14 01:30:00,49.5,45.2,29.81,South,186,0.0,1.0,85,0.00,,CLR,0.00,VWS V14.00,2013-04-14 08:30:00,
2013-04-14 01:31:00,49.5,45.2,29.82,South,186,0.0,0.0,85,0.00,,CLR,0.00,VWS V14.00,2013-04-14 08:31:00,
2013-04-14 01:36:00,49.6,45.3,29.82,South,185,0.0,1.0,85,0.00,,CLR,0.00,VWS V14.00,2013-04-14 08:36:00,
2013-04-14 01:42:00,49.6,45.3,29.82,South,185,0.0,1.0,85,0.00,,CLR,0.00,VWS V14.00,2013-04-14 08:42:00,
2013-04-14 01:47:00,49.6,45.3,29.82,South,185,0.0,1.0,85,0.00,,CLR,0.00,VWS V14.00,2013-04-14 08:47:00,
2013-04-14 01:52:00,49.4,45.4,29.82,South,185,0.0,1.0,86,0.00,,CLR,0.00,VWS V14.00,2013-04-14 08:52:00,
2013-04-14 01:57:00,49.3,45.3,29.82,South,186,0.0,1.0,86,0.00,,CLR,0.00,VWS V14.00,2013-04-14 08:57:00,
2013-04-14 02:00:00,49.3,45.3,29.82,South,185,0.0,1.0,86,0.00,,CLR,0.00,VWS V14.00,2013-04-14 09:00:00,
2013-04-14 02:02:00,49.2,45.2,29.82,South,185,0.0,0.0,86,0.00,,CLR,0.00,VWS V14.00,2013-04-14 09:02:00,
2013-04-14 02:07:00,49.2,45.2,29.82,South,185,0.0,0.0,86,0.00,,CLR,0.00,VWS V14.00,2013-04-14 09:07:00,
2013-04-14 02:12:00,49.1,45.1,29.82,South,185,0.0,0.0,86,0.00,,CLR,0.00,VWS V14.00,2013-04-14 09:12:00,
2013-04-14 02:17:00,49.0,45.0,29.82,South,186,0.0,0.0,86,0.00,,CLR,0.00,VWS V14.00,2013-04-14 09:17:00,
2013-04-14 02:22:00,49.0,45.0,29.82,South,186,0.0,0.0,86,0.00,,CLR,0.00,VWS V14.00,2013-04-14 09:22:00,
2013-04-14 02:27:00,49.1,45.1,29.82,South,185,0.0,0.0,86,0.00,,CLR,0.00,VWS V14.00,2013-04-14 09:27:00,
2013-04-14 02:30:00,49.0,45.0,29.82,South,185,0.0,0.0,86,0.00,,CLR,0.00,VWS V14.00,2013-04-14 09:30:00,
2013-04-14 02:32:00,48.9,44.9,29.82,South,185,0.0,0.0,86,0.00,,CLR,0.00,VWS V14.00,2013-04-14 09:32:00,
2013-04-14 02:37:00,48.9,44.9,29.82,South,185,0.0,1.0,86,0.00,,CLR,0.00,VWS V14.00,2013-04-14 09:37:00,
2013-04-14 02:42:00,48.7,45.0,29.82,South,185,0.0,1.0,87,0.00,,CLR,0.00,VWS V14.00,2013-04-14 09:42:00,
2013-04-14 02:47:00,48.5,44.8,29.82,South,185,0.0,1.0,87,0.00,,CLR,0.00,VWS V14.00,2013-04-14 09:47:00,
2013-04-14 02:52:00,48.5,44.8,29.82,South,185,0.0,1.0,87,0.00,,CLR,0.00,VWS V14.00,2013-04-14 09:52:00,
2013-04-14 02:57:00,48.3,44.3,29.82,South,186,0.0,1.0,86,0.00,,CLR,0.00,VWS V14.00,2013-04-14 09:57:00,
2013-04-14 03:00:00,48.5,44.8,29.82,South,185,0.0,1.0,87,0.00,,CLR,0.00,VWS V14.00,2013-04-14 10:00:00,
2013-04-14 03:02:00,48.4,44.7,29.82,South,185,0.0,0.0,87,0.00,,CLR,0.00,VWS V14.00,2013-04-14 10:02:00,
2013-04-14 03:07:00,48.4,44.7,29.82,South,186,0.0,0.0,87,0.00,,CLR,0.00,VWS V14.00,2013-04-14 10:07:00,
2013-04-14 03:12:00,48.2,44.5,29.82,South,185,0.0,0.0,87,0.00,,CLR,0.00,VWS V14.00,2013-04-14 10:12:00,
2013-04-14 03:17:00,48.2,44.2,29.82,South,185,0.0,0.0,86,0.00,,CLR,0.00,VWS V14.00,2013-04-14 10:17:00,
2013-04-14 03:22:00,48.3,44.6,29.82,South,186,0.0,0.0,87,0.00,,CLR,0.00,VWS V14.00,2013-04-14 10:22:00,
2013-04-14 03:27:00,48.2,44.5,29.82,South,185,0.0,0.0,87,0.00,,CLR,0.00,VWS V14.00,2013-04-14 10:27:00,
2013-04-14 03:30:00,47.8,44.1,29.82,South,186,0.0,0.0,87,0.00,,CLR,0.00,VWS V14.00,2013-04-14 10:30:00,
2013-04-14 03:32:00,48.1,44.4,29.82,South,185,0.0,0.0,87,0.00,,CLR,0.00,VWS V14.00,2013-04-14 10:32:00,
2013-04-14 03:37:00,47.9,44.2,29.82,South,185,0.0,0.0,87,0.00,,CLR,0.00,VWS V14.00,2013-04-14 10:37:00,
2013-04-14 03:42:00,48.1,44.4,29.82,South,186,0.0,0.0,87,0.00,,CLR,0.00,VWS V14.00,2013-04-14 10:42:00,
2013-04-14 03:47:00,47.8,44.1,29.82,South,185,0.0,0.0,87,0.00,,CLR,0.00,VWS V14.00,2013-04-14 10:47:00,
2013-04-14 03:52:00,47.9,44.2,29.82,South,186,0.0,0.0,87,0.00,,CLR,0.00,VWS V14.00,2013-04-14 10:52:00,
2013-04-14 03:57:00,47.8,44.1,29.82,South,185,0.0,0.0,87,0.00,,CLR,0.00,VWS V14.00,2013-04-14 10:57:00,
2013-04-14 04:00:00,48.5,44.8,29.82,South,185,0.0,1.0,87,0.00,,CLR,0.00,VWS V15.00,2013-04-14 11:00:00,
2013-04-14 04:02:00,47.6,43.9,29.83,South,186,0.0,0.0,87,0.00,,CLR,0.00,VWS V14.00,2013-04-14 11:02:00,
2013-04-14 04:07:00,47.5,44.1,29.82,South,185,0.0,0.0,88,0.00,,CLR,0.00,VWS V14.00,2013-04-14 11:07:00,
2013-04-14 04:12:00,47.5,44.1,29.82,South,185,0.0,0.0,88,0.00,,CLR,0.00,VWS V14.00,2013-04-14 11:12:00,
2013-04-14 04:17:00,47.6,44.2,29.82,South,185,0.0,0.0,88,0.00,,CLR,0.00,VWS V14.00,2013-04-14 11:17:00,
2013-04-14 04:22:00,47.3,43.9,29.82,South,186,0.0,0.0,88,0.00,,CLR,0.00,VWS V14.00,2013-04-14 11:22:00,
2013-04-14 04:27:00,47.3,43.9,29.82,South,186,0.0,0.0,88,0.00,,CLR,0.00,VWS V14.00,2013-04-14 11:27:00,
2013-04-14 04:30:00,47.3,43.9,29.82,South,185,0.0,0.0,88,0.00,,CLR,0.00,VWS V14.00,2013-04-14 11:30:00,
2013-04-14 04:32:00,47.2,43.8,29.83,South,185,0.0,0.0,88,0.00,,CLR,0.00,VWS V14.00,2013-04-14 11:32:00,
2013-04-14 04:37:00,47.1,44.0,29.83,South,185,0.0,0.0,89,0.00,,CLR,0.00,VWS V14.00,2013-04-14 11:37:00,
2013-04-14 04:42:00,46.9,43.8,29.82,South,185,0.0,0.0,89,0.00,,CLR,0.00,VWS V14.00,2013-04-14 11:42:00,
2013-04-14 04:47:00,47.1,44.0,29.83,South,185,0.0,0.0,89,0.00,,CLR,0.00,VWS V14.00,2013-04-14 11:47:00,
2013-04-14 04:52:00,47.3,44.2,29.82,South,185,2.0,2.0,89,0.00,,CLR,0.00,VWS V14.00,2013-04-14 11:52:00,
2013-04-14 04:57:00,46.9,44.1,29.82,South,185,0.0,2.0,90,0.00,,CLR,0.00,VWS V14.00,2013-04-14 11:57:00,
2013-04-14 05:00:00,46.9,44.1,29.82,South,184,0.0,2.0,90,0.00,,CLR,0.00,VWS V14.00,2013-04-14 12:00:00,
2013-04-14 05:02:00,46.9,44.1,29.82,South,186,0.0,2.0,90,0.00,,CLR,0.00,VWS V14.00,2013-04-14 12:02:00,
2013-04-14 05:07:00,46.8,43.7,29.82,South,185,0.0,2.0,89,0.00,,CLR,0.00,VWS V14.00,2013-04-14 12:07:00,
2013-04-14 05:12:00,47.1,44.3,29.82,South,186,0.0,2.0,90,0.00,,CLR,0.00,VWS V14.00,2013-04-14 12:12:00,
2013-04-14 05:17:00,46.7,43.9,29.81,South,185,0.0,2.0,90,0.00,,CLR,0.00,VWS V14.00,2013-04-14 12:17:00,
2013-04-14 05:22:00,46.9,44.1,29.81,South,186,0.0,2.0,90,0.00,,CLR,0.00,VWS V14.00,2013-04-14 12:22:00,
2013-04-14 05:27:00,46.6,43.8,29.82,South,185,0.0,2.0,90,0.00,,CLR,0.00,VWS V14.00,2013-04-14 12:27:00,
2013-04-14 05:30:00,47.3,43.9,29.82,South,185,0.0,0.0,88,0.00,,BKN025,0.00,VWS V15.00,2013-04-14 12:30:00,
2013-04-14 05:32:00,46.6,43.8,29.82,South,185,0.0,0.0,90,0.00,,CLR,0.00,VWS V14.00,2013-04-14 12:32:00,
2013-04-14 05:37:00,46.6,43.8,29.82,South,186,0.0,0.0,90,0.00,,CLR,0.00,VWS V14.00,2013-04-14 12:37:00,
2013-04-14 05:42:00,46.6,43.8,29.82,South,185,0.0,0.0,90,0.00,,CLR,0.00,VWS V14.00,2013-04-14 12:42:00,
2013-04-14 05:47:00,46.4,43.6,29.82,South,186,0.0,0.0,90,0.00,,CLR,0.00,VWS V14.00,2013-04-14 12:47:00,
2013-04-14 05:52:00,46.6,43.8,29.82,South,186,0.0,0.0,90,0.00,,CLR,0.00,VWS V14.00,2013-04-14 12:52:00,
2013-04-14 05:57:00,46.5,43.4,29.82,South,185,0.0,0.0,89,0.00,,CLR,0.00,VWS V14.00,2013-04-14 12:57:00,
2013-04-14 06:00:00,46.4,43.3,29.82,South,186,0.0,0.0,89,0.00,,CLR,0.00,VWS V14.00,2013-04-14 13:00:00,
2013-04-14 06:02:00,46.4,43.6,29.82,South,185,0.0,0.0,90,0.00,,CLR,0.00,VWS V14.00,2013-04-14 13:02:00,
2013-04-14 06:07:00,46.3,43.5,29.82,South,185,0.0,0.0,90,0.00,,CLR,0.00,VWS V14.00,2013-04-14 13:07:00,
2013-04-14 06:12:00,46.3,43.5,29.82,South,186,0.0,0.0,90,0.00,,CLR,0.00,VWS V14.00,2013-04-14 13:12:00,
2013-04-14 06:17:00,46.2,43.4,29.82,South,186,0.0,0.0,90,0.00,,CLR,0.00,VWS V14.00,2013-04-14 13:17:00,
2013-04-14 06:22:00,46.3,43.5,29.82,South,185,0.0,0.0,90,0.00,,CLR,0.00,VWS V14.00,2013-04-14 13:22:00,
2013-04-14 06:28:00,46.2,43.4,29.82,South,186,0.0,0.0,90,0.00,,CLR,0.00,VWS V14.00,2013-04-14 13:28:00,
2013-04-14 06:30:00,46.2,43.4,29.82,South,185,0.0,1.0,90,0.00,,CLR,0.00,VWS V14.00,2013-04-14 13:30:00,
2013-04-14 06:33:00,46.3,43.8,29.82,South,186,0.0,1.0,91,0.00,,CLR,0.00,VWS V14.00,2013-04-14 13:33:00,
2013-04-14 06:38:00,46.0,43.5,29.82,South,186,0.0,1.0,91,0.00,,CLR,0.00,VWS V14.00,2013-04-14 13:38:00,
2013-04-14 06:43:00,45.9,43.4,29.82,South,185,0.0,1.0,91,0.00,,CLR,0.00,VWS V14.00,2013-04-14 13:43:00,
2013-04-14 06:48:00,45.9,43.4,29.82,South,185,0.0,1.0,91,0.00,,CLR,0.00,VWS V14.00,2013-04-14 13:48:00,
2013-04-14 06:53:00,45.7,43.2,29.82,South,184,0.0,1.0,91,0.00,,CLR,0.00,VWS V14.00,2013-04-14 13:53:00,
2013-04-14 06:58:00,45.8,43.3,29.82,South,185,0.0,1.0,91,0.00,,CLR,0.00,VWS V14.00,2013-04-14 13:58:00,
2013-04-14 07:00:00,45.8,43.3,29.82,South,185,0.0,1.0,91,0.00,,CLR,0.00,VWS V14.00,2013-04-14 14:00:00,
2013-04-14 07:03:00,45.6,43.1,29.82,South,185,0.0,0.0,91,0.00,,CLR,0.00,VWS V14.00,2013-04-14 14:03:00,
2013-04-14 07:08:00,45.8,43.3,29.82,South,186,0.0,0.0,91,0.00,,CLR,0.00,VWS V14.00,2013-04-14 14:08:00,
2013-04-14 07:13:00,45.8,43.3,29.82,South,185,0.0,0.0,91,0.00,,CLR,0.00,VWS V14.00,2013-04-14 14:13:00,
2013-04-14 07:18:00,45.9,43.4,29.82,South,186,0.0,0.0,91,0.00,,CLR,0.00,VWS V14.00,2013-04-14 14:18:00,
2013-04-14 07:23:00,46.0,43.8,29.83,South,185,0.0,0.0,92,0.00,,CLR,0.00,VWS V14.00,2013-04-14 14:23:00,
2013-04-14 07:28:00,46.1,43.6,29.83,South,185,0.0,0.0,91,0.00,,CLR,0.00,VWS V14.00,2013-04-14 14:28:00,
2013-04-14 07:30:00,46.2,43.4,29.82,South,185,0.0,1.0,90,0.00,,BKN025,0.00,VWS V15.00,2013-04-14 14:30:00,
2013-04-14 07:33:00,46.3,44.1,29.83,South,186,0.0,0.0,92,0.00,,CLR,0.00,VWS V14.00,2013-04-14 14:33:00,
2013-04-14 07:38:00,46.4,43.9,29.84,South,185,0.0,0.0,91,0.00,,CLR,0.00,VWS V14.00,2013-04-14 14:38:00,
2013-04-14 07:43:00,46.4,43.9,29.83,South,185,0.0,0.0,91,0.00,,CLR,0.00,VWS V14.00,2013-04-14 14:43:00,
2013-04-14 07:48:00,46.7,44.2,29.83,South,186,0.0,0.0,91,0.00,,CLR,0.00,VWS V14.00,2013-04-14 14:48:00,
2013-04-14 07:53:00,47.0,44.5,29.83,South,185,0.0,0.0,91,0.00,,CLR,0.00,VWS V14.00,2013-04-14 14:53:00,
2013-04-14 07:58:00,47.1,44.6,29.84,South,186,0.0,0.0,91,0.00,,CLR,0.00,VWS V14.00,2013-04-14 14:58:00,
2013-04-14 08:00:00,47.1,44.6,29.84,South,185,0.0,0.0,91,0.00,,CLR,0.00,VWS V14.00,2013-04-14 15:00:00,
2013-04-14 08:03:00,47.4,44.6,29.84,South,186,0.0,0.0,90,0.00,,CLR,0.00,VWS V14.00,2013-04-14 15:03:00,
2013-04-14 08:08:00,47.4,44.6,29.85,South,186,0.0,0.0,90,0.00,,CLR,0.00,VWS V14.00,2013-04-14 15:08:00,
2013-04-14 08:13:00,47.5,44.7,29.84,South,185,0.0,1.0,90,0.00,,CLR,0.00,VWS V14.00,2013-04-14 15:13:00,
2013-04-14 08:18:00,47.7,44.9,29.85,South,184,0.0,1.0,90,0.00,,CLR,0.00,VWS V14.00,2013-04-14 15:18:00,
2013-04-14 08:23:00,48.0,44.9,29.85,South,186,0.0,1.0,89,0.00,,CLR,0.00,VWS V14.00,2013-04-14 15:23:00,
2013-04-14 08:28:00,48.2,45.1,29.84,South,185,0.0,1.0,89,0.00,,CLR,0.00,VWS V14.00,2013-04-14 15:28:00,
2013-04-14 08:30:00,48.2,45.1,29.85,South,185,0.0,1.0,89,0.00,,CLR,0.00,VWS V14.00,2013-04-14 15:30:00,
2013-04-14 08:33:00,48.5,45.1,29.85,South,185,0.0,0.0,88,0.00,,CLR,0.00,VWS V14.00,2013-04-14 15:33:00,
2013-04-14 08:38:00,48.6,44.6,29.84,South,186,0.0,0.0,86,0.00,,CLR,0.00,VWS V14.00,2013-04-14 15:38:00,
2013-04-14 08:43:00,48.9,44.9,29.84,South,185,0.0,0.0,86,0.00,,CLR,0.00,VWS V14.00,2013-04-14 15:43:00,
2013-04-14 08:48:00,49.3,45.6,29.84,South,185,0.0,0.0,87,0.00,,CLR,0.00,VWS V14.00,2013-04-14 15:48:00,
2013-04-14 08:53:00,49.6,45.3,29.84,South,185,0.0,0.0,85,0.00,,CLR,0.00,VWS V14.00,2013-04-14 15:53:00,
2013-04-14 08:58:00,49.8,45.2,29.84,South,185,0.0,0.0,84,0.00,,CLR,0.00,VWS V14.00,2013-04-14 15:58:00,
2013-04-14 09:00:00,50.1,45.2,29.84,South,185,0.0,0.0,83,0.00,,CLR,0.00,VWS V14.00,2013-04-14 16:00:00,
2013-04-14 09:03:00,50.1,45.2,29.84,South,185,0.0,0.0,83,0.00,,CLR,0.00,VWS V14.00,2013-04-14 16:03:00,
2013-04-14 09:08:00,50.6,45.3,29.85,South,185,0.0,1.0,82,0.00,,CLR,0.00,VWS V14.00,2013-04-14 16:08:00,
2013-04-14 09:13:00,50.7,45.4,29.85,South,185,0.0,1.0,82,0.00,,CLR,0.00,VWS V14.00,2013-04-14 16:13:00,
2013-04-14 09:18:00,51.1,45.2,29.85,South,185,0.0,1.0,80,0.00,,CLR,0.00,VWS V14.00,2013-04-14 16:18:00,
2013-04-14 09:23:00,51.5,45.2,29.85,South,185,0.0,1.0,79,0.00,,CLR,0.00,VWS V14.00,2013-04-14 16:23:00,
2013-04-14 09:28:00,51.5,45.2,29.85,South,185,1.0,1.0,79,0.00,,CLR,0.00,VWS V14.00,2013-04-14 16:28:00,
2013-04-14 09:30:00,51.8,45.5,29.84,South,185,0.0,1.0,79,0.00,,CLR,0.00,VWS V14.00,2013-04-14 16:30:00,
2013-04-14 09:33:00,52.0,45.7,29.85,South,185,0.0,0.0,79,0.00,,CLR,0.00,VWS V14.00,2013-04-14 16:33:00,
2013-04-14 09:38:00,52.2,45.6,29.84,South,185,0.0,3.0,78,0.00,,CLR,0.00,VWS V14.00,2013-04-14 16:38:00,
2013-04-14 09:43:00,52.8,45.8,29.85,South,185,0.0,3.0,77,0.00,,CLR,0.00,VWS V14.00,2013-04-14 16:43:00,
2013-04-14 09:48:00,52.9,45.9,29.85,South,186,0.0,3.0,77,0.00,,CLR,0.00,VWS V14.00,2013-04-14 16:48:00,
2013-04-14 09:53:00,53.3,45.9,29.84,South,186,0.0,3.0,76,0.00,,CLR,0.00,VWS V14.00,2013-04-14 16:53:00,
2013-04-14 09:58:00,53.7,46.0,29.84,South,185,1.0,3.0,75,0.00,,CLR,0.00,VWS V14.00,2013-04-14 16:58:00,
2013-04-14 10:00:00,53.5,45.4,29.84,South,187,0.0,3.0,74,0.00,,CLR,0.00,VWS V14.00,2013-04-14 17:00:00,
2013-04-14 10:03:00,54.1,46.0,29.85,South,187,0.0,0.0,74,0.00,,CLR,0.00,VWS V14.00,2013-04-14 17:03:00,
2013-04-14 10:08:00,54.5,45.7,29.84,South,187,0.0,1.0,72,0.00,,CLR,0.00,VWS V14.00,2013-04-14 17:08:00,
2013-04-14 10:13:00,54.9,46.1,29.85,South,189,0.0,3.0,72,0.00,,CLR,0.00,VWS V14.00,2013-04-14 17:13:00,
2013-04-14 10:18:00,55.4,46.5,29.84,South,188,0.0,3.0,72,0.00,,CLR,0.00,VWS V14.00,2013-04-14 17:18:00,
2013-04-14 10:23:00,55.8,46.5,29.85,South,189,1.0,3.0,71,0.00,,CLR,0.00,VWS V14.00,2013-04-14 17:23:00,
2013-04-14 10:28:00,56.1,45.7,29.85,South,190,0.0,3.0,68,0.00,,CLR,0.00,VWS V14.00,2013-04-14 17:28:00,
2013-04-14 10:30:00,56.3,45.9,29.84,South,190,0.0,3.0,68,0.00,,CLR,0.00,VWS V14.00,2013-04-14 17:30:00,
2013-04-14 10:33:00,56.8,45.6,29.85,South,190,0.0,3.0,66,0.00,,CLR,0.00,VWS V14.00,2013-04-14 17:33:00,
2013-04-14 10:38:00,56.8,44.8,29.85,NNW,333,0.0,3.0,64,0.00,,CLR,0.00,VWS V14.00,2013-04-14 17:38:00,
2013-04-14 10:43:00,57.3,45.7,29.84,NNE,13,0.0,3.0,65,0.00,,CLR,0.00,VWS V14.00,2013-04-14 17:43:00,
2013-04-14 10:48:00,57.6,44.7,29.84,NNW,332,0.0,3.0,62,0.00,,CLR,0.00,VWS V14.00,2013-04-14 17:48:00,
2013-04-14 10:53:00,58.0,45.1,29.84,NNW,335,0.0,3.0,62,0.00,,CLR,0.00,VWS V14.00,2013-04-14 17:53:00,
2013-04-14 10:58:00,58.7,44.9,29.84,WNW,295,0.0,3.0,60,0.00,,CLR,0.00,VWS V14.00,2013-04-14 17:58:00,
2013-04-14 11:00:00,53.5,45.4,29.84,South,187,0.0,3.0,74,0.00,,BKN025,0.00,VWS V15.00,2013-04-14 18:00:00,
2013-04-14 11:03:00,59.1,46.1,29.84,NE,46,0.0,1.0,62,0.00,,CLR,0.00,VWS V14.00,2013-04-14 18:03:00,
2013-04-14 11:08:00,59.6,45.7,29.84,ESE,103,0.0,1.0,60,0.00,,CLR,0.00,VWS V14.00,2013-04-14 18:08:00,
2013-04-14 11:13:00,59.6,44.8,29.84,North,0,0.0,1.0,58,0.00,,CLR,0.00,VWS V14.00,2013-04-14 18:13:00,
2013-04-14 11:18:00,60.2,45.8,29.84,North,350,0.0,3.0,59,0.00,,CLR,0.00,VWS V14.00,2013-04-14 18:18:00,
2013-04-14 11:23:00,60.5,45.7,29.84,NE,43,0.0,3.0,58,0.00,,CLR,0.00,VWS V14.00,2013-04-14 18:23:00,
2013-04-14 11:28:00,60.9,45.6,29.84,North,352,0.0,4.0,57,0.00,,CLR,0.00,VWS V14.00,2013-04-14 18:28:00,
2013-04-14 11:30:00,61.1,45.8,29.84,North,352,1.0,4.0,57,0.00,,CLR,0.00,VWS V14.00,2013-04-14 18:30:00,
2013-04-14 11:33:00,61.5,46.6,29.83,North,0,0.0,1.0,58,0.00,,CLR,0.00,VWS V14.00,2013-04-14 18:33:00,
2013-04-14 11:38:00,62.0,46.1,29.83,North,350,0.0,2.0,56,0.00,,CLR,0.00,VWS V14.00,2013-04-14 18:38:00,
2013-04-14 11:43:00,62.5,47.1,29.83,NNW,346,0.0,2.0,57,0.00,,CLR,0.00,VWS V14.00,2013-04-14 18:43:00,
2013-04-14 11:48:00,62.5,46.1,29.83,WNW,290,0.0,2.0,55,0.00,,CLR,0.00,VWS V14.00,2013-04-14 18:48:00,
2013-04-14 11:53:00,63.1,47.2,29.83,WSW,251,0.0,2.0,56,0.00,,CLR,0.00,VWS V14.00,2013-04-14 18:53:00,
2013-04-14 11:58:00,63.4,47.0,29.83,WNW,301,0.0,2.0,55,0.00,,CLR,0.00,VWS V14.00,2013-04-14 18:58:00,
2013-04-14 12:00:00,63.4,47.0,29.83,WNW,302,0.0,2.0,55,0.00,,CLR,0.00,VWS V14.00,2013-04-14 19:00:00,
2013-04-14 12:03:00,63.7,47.2,29.83,SW,226,0.0,3.0,55,0.00,,CLR,0.00,VWS V14.00,2013-04-14 19:03:00,
2013-04-14 12:08:00,64.3,48.3,29.82,North,0,0.0,3.0,56,0.00,,CLR,0.00,VWS V14.00,2013-04-14 19:08:00,
2013-04-14 12:13:00,64.6,48.6,29.82,SW,232,0.0,3.0,56,0.00,,CLR,0.00,VWS V14.00,2013-04-14 19:13:00,
2013-04-14 12:18:00,65.5,49.9,29.82,West,272,0.0,3.0,57,0.00,,CLR,0.00,VWS V14.00,2013-04-14 19:18:00,
2013-04-14 12:23:00,65.8,49.2,29.82,NW,312,2.0,3.0,55,0.00,,CLR,0.00,VWS V14.00,2013-04-14 19:23:00,
2013-04-14 12:28:00,66.4,49.8,29.82,North,358,0.0,4.0,55,0.00,,CLR,0.00,VWS V14.00,2013-04-14 19:28:00,
2013-04-14 12:30:00,66.5,49.8,29.82,NNW,336,0.0,4.0,55,0.00,,CLR,0.00,VWS V14.00,2013-04-14 19:30:00,
2013-04-14 12:33:00,67.3,50.6,29.81,North,354,0.0,3.0,55,0.00,,CLR,0.00,VWS V14.00,2013-04-14 19:33:00,
2013-04-14 12:38:00,67.8,50.1,29.82,NNW,346,0.0,3.0,53,0.00,,CLR,0.00,VWS V14.00,2013-04-14 19:38:00,
2013-04-14 12:43:00,68.5,50.2,29.82,SSW,211,0.0,4.0,52,0.00,,CLR,0.00,VWS V14.00,2013-04-14 19:43:00,
2013-04-14 12:48:00,68.8,50.5,29.82,South,189,0.0,4.0,52,0.00,,CLR,0.00,VWS V14.00,2013-04-14 19:48:00,
2013-04-14 12:53:00,69.4,50.5,29.82,South,180,0.0,4.0,51,0.00,,CLR,0.00,VWS V14.00,2013-04-14 19:53:00,
2013-04-14 12:58:00,69.6,50.2,29.82,South,180,1.0,6.0,50,0.00,,CLR,0.00,VWS V14.00,2013-04-14 19:58:00,
2013-04-14 13:00:00,69.8,50.3,29.82,SSW,192,0.0,6.0,50,0.00,,CLR,0.00,VWS V14.00,2013-04-14 20:00:00,
2013-04-14 13:03:00,69.9,48.8,29.82,North,356,0.0,7.0,47,0.00,,CLR,0.00,VWS V14.00,2013-04-14 20:03:00,
2013-04-14 13:09:00,70.0,48.3,29.81,NNW,334,2.0,7.0,46,0.00,,CLR,0.00,VWS V14.00,2013-04-14 20:09:00,
2013-04-14 13:14:00,69.9,48.2,29.82,North,354,0.0,7.0,46,0.00,,CLR,0.00,VWS V14.00,2013-04-14 20:14:00,
2013-04-14 13:19:00,70.2,47.9,29.82,NW,312,0.0,7.0,45,0.00,,CLR,0.00,VWS V14.00,2013-04-14 20:19:00,
2013-04-14 13:24:00,70.5,45.7,29.82,North,353,0.0,7.0,41,0.00,,CLR,0.00,VWS V14.00,2013-04-14 20:24:00,
2013-04-14 13:29:00,70.5,45.7,29.81,South,169,0.0,7.0,41,0.00,,CLR,0.00,VWS V14.00,2013-04-14 20:29:00,
2013-04-14 13:30:00,70.5,45.0,29.82,South,169,0.0,7.0,40,0.00,,CLR,0.00,VWS V14.00,2013-04-14 20:30:00,
2013-04-14 13:34:00,70.5,45.0,29.82,South,179,0.0,3.0,40,0.00,,CLR,0.00,VWS V14.00,2013-04-14 20:34:00,
2013-04-14 13:39:00,71.1,45.6,29.81,West,277,0.0,5.0,40,0.00,,CLR,0.00,VWS V14.00,2013-04-14 20:39:00,
2013-04-14 13:44:00,71.5,43.2,29.81,SW,232,0.0,5.0,36,0.00,,CLR,0.00,VWS V14.00,2013-04-14 20:44:00,
2013-04-14 13:49:00,72.1,45.1,29.81,NNW,340,1.0,5.0,38,0.00,,CLR,0.00,VWS V14.00,2013-04-14 20:49:00,
2013-04-14 13:54:00,72.6,45.6,29.82,North,349,1.0,5.0,38,0.00,,CLR,0.00,VWS V14.00,2013-04-14 20:54:00,
2013-04-14 13:59:00,72.7,45.0,29.81,WSW,245,0.0,5.0,37,0.00,,CLR,0.00,VWS V14.00,2013-04-14 20:59:00,
2013-04-14 14:00:00,72.9,45.1,29.81,NNW,348,0.0,5.0,37,0.00,,CLR,0.00,VWS V14.00,2013-04-14 21:00:00,
2013-04-14 14:04:00,72.8,46.4,29.81,NNW,329,0.0,6.0,39,0.00,,CLR,0.00,VWS V14.00,2013-04-14 21:04:00,
2013-04-14 14:09:00,73.3,46.9,29.81,WSW,239,0.0,6.0,39,0.00,,CLR,0.00,VWS V14.00,2013-04-14 21:09:00,
2013-04-14 14:14:00,73.5,46.4,29.81,WSW,257,0.0,8.0,38,0.00,,CLR,0.00,VWS V14.00,2013-04-14 21:14:00,
2013-04-14 14:19:00,73.5,47.0,29.81,WNW,303,1.0,8.0,39,0.00,,CLR,0.00,VWS V14.00,2013-04-14 21:19:00,
2013-04-14 14:24:00,73.5,47.0,29.81,NNW,345,0.0,8.0,39,0.00,,CLR,0.00,VWS V14.00,2013-04-14 21:24:00,
2013-04-14 14:29:00,74.0,48.8,29.82,NNW,333,1.0,8.0,41,0.00,,CLR,0.00,VWS V14.00,2013-04-14 21:29:00,
2013-04-14 14:30:00,73.8,48.7,29.81,NW,316,0.0,8.0,41,0.00,,CLR,0.00,VWS V14.00,2013-04-14 21:30:00,
2013-04-14 14:34:00,74.3,49.1,29.81,NW,326,0.0,4.0,41,0.00,,CLR,0.00,VWS V14.00,2013-04-14 21:34:00,
2013-04-14 14:39:00,74.7,48.8,29.81,SSW,206,1.0,4.0,40,0.00,,CLR,0.00,VWS V14.00,2013-04-14 21:39:00,
2013-04-14 14:44:00,74.9,49.0,29.80,NNW,339,1.0,5.0,40,0.00,,CLR,0.00,VWS V14.00,2013-04-14 21:44:00,
2013-04-14 14:49:00,74.5,48.6,29.80,South,182,0.0,5.0,40,0.00,,CLR,0.00,VWS V14.00,2013-04-14 21:49:00,
2013-04-14 14:54:00,74.7,49.5,29.80,SSW,210,0.0,5.0,41,0.00,,CLR,0.00,VWS V14.00,2013-04-14 21:54:00,
2013-04-14 14:59:00,75.4,48.8,29.80,SW,223,0.0,5.0,39,0.00,,CLR,0.00,VWS V14.00,2013-04-14 21:59:00,
2013-04-14 15:00:00,75.3,48.7,29.81,West,265,0.0,5.0,39,0.00,,CLR,0.00,VWS V14.00,2013-04-14 22:00:00,
2013-04-14 15:04:00,75.7,49.7,29.80,South,181,0.0,3.0,40,0.00,,CLR,0.00,VWS V14.00,2013-04-14 22:04:00,
2013-04-14 15:09:00,75.7,48.3,29.80,WNW,303,1.0,4.0,38,0.00,,CLR,0.00,VWS V14.00,2013-04-14 22:09:00,
2013-04-14 15:14:00,75.7,47.6,29.80,SSW,210,0.0,6.0,37,0.00,,CLR,0.00,VWS V14.00,2013-04-14 22:14:00,
2013-04-14 15:19:00,75.7,46.9,29.79,South,183,1.0,6.0,36,0.00,,CLR,0.00,VWS V14.00,2013-04-14 22:19:00,
2013-04-14 15:24:00,76.3,46.7,29.79,ESE,117,0.0,6.0,35,0.00,,CLR,0.00,VWS V14.00,2013-04-14 22:24:00,
2013-04-14 15:29:00,76.8,46.3,29.79,North,5,1.0,6.0,34,0.00,,CLR,0.00,VWS V14.00,2013-04-14 22:29:00,
2013-04-14 15:30:00,77.2,46.7,29.80,WSW,253,2.0,6.0,34,0.00,,CLR,0.00,VWS V14.00,2013-04-14 22:30:00,
2013-04-14 15:34:00,76.9,47.2,29.79,NW,315,0.0,8.0,35,0.00,,CLR,0.00,VWS V14.00,2013-04-14 22:34:00,
2013-04-14 15:39:00,77.2,46.7,29.79,SW,221,0.0,8.0,34,0.00,,CLR,0.00,VWS V14.00,2013-04-14 22:39:00,
2013-04-14 15:44:00,77.4,47.6,29.79,SW,218,2.0,8.0,35,0.00,,CLR,0.00,VWS V14.00,2013-04-14 22:44:00,
2013-04-14 15:49:00,77.8,47.2,29.78,SSW,201,0.0,8.0,34,0.00,,CLR,0.00,VWS V14.00,2013-04-14 22:49:00,
2013-04-14 15:54:00,77.3,46.8,29.79,WSW,253,1.0,8.0,34,0.00,,CLR,0.00,VWS V14.00,2013-04-14 22:54:00,
2013-04-14 15:59:00,77.1,45.8,29.78,SW,236,0.0,8.0,33,0.00,,CLR,0.00,VWS V14.00,2013-04-14 22:59:00,
2013-04-14 16:00:00,77.2,45.9,29.78,NNW,343,0.0,8.0,33,0.00,,CLR,0.00,VWS V14.00,2013-04-14 23:00:00,
2013-04-14 16:04:00,77.5,47.0,29.78,North,354,0.0,1.0,34,0.00,,CLR,0.00,VWS V14.00,2013-04-14 23:04:00,
2013-04-14 16:09:00,77.9,46.5,29.78,SW,216,2.0,4.0,33,0.00,,CLR,0.00,VWS V14.00,2013-04-14 23:09:00,
2013-04-14 16:14:00,77.8,47.2,29.78,NNW,330,0.0,4.0,34,0.00,,CLR,0.00,VWS V14.00,2013-04-14 23:14:00,
2013-04-14 16:19:00,78.0,47.4,29.78,North,358,0.0,5.0,34,0.00,,CLR,0.00,VWS V14.00,2013-04-14 23:19:00,
2013-04-14 16:24:00,77.8,48.0,29.78,NW,308,0.0,5.0,35,0.00,,CLR,0.00,VWS V14.00,2013-04-14 23:24:00,
2013-04-14 16:29:00,78.2,47.6,29.78,SSW,194,0.0,5.0,34,0.00,,CLR,0.00,VWS V14.00,2013-04-14 23:29:00,
2013-04-14 16:30:00,78.3,47.7,29.78,SSW,203,0.0,5.0,34,0.00,,CLR,0.00,VWS V14.00,2013-04-14 23:30:00,
2013-04-14 16:34:00,78.1,47.5,29.78,SSW,198,0.0,4.0,34,0.00,,CLR,0.00,VWS V14.00,2013-04-14 23:34:00,
2013-04-14 16:39:00,77.7,47.9,29.77,NNE,14,0.0,6.0,35,0.00,,CLR,0.00,VWS V14.00,2013-04-14 23:39:00,
2013-04-14 16:44:00,77.2,47.5,29.78,NNW,327,2.0,6.0,35,0.00,,CLR,0.00,VWS V14.00,2013-04-14 23:44:00,
2013-04-14 16:49:00,76.6,46.9,29.78,NNW,348,1.0,9.0,35,0.00,,CLR,0.00,VWS V14.00,2013-04-14 23:49:00,
2013-04-14 16:54:00,76.5,48.3,29.78,NE,45,0.0,9.0,37,0.00,,CLR,0.00,VWS V14.00,2013-04-14 23:54:00,
2013-04-14 16:59:00,76.1,48.0,29.78,West,272,0.0,9.0,37,0.00,,CLR,0.00,VWS V14.00,2013-04-14 23:59:00,
2013-04-14 17:00:00,76.0,48.6,29.78,WSW,251,2.0,9.0,38,0.00,,CLR,0.00,VWS V14.00,2013-04-15 00:00:00,
2013-04-14 17:04:00,75.1,48.5,29.77,North,0,0.0,3.0,39,0.00,,CLR,0.00,VWS V14.00,2013-04-15 00:04:00,
2013-04-14 17:09:00,74.4,47.9,29.78,SSW,205,1.0,6.0,39,0.00,,CLR,0.00,VWS V14.00,2013-04-15 00:09:00,
2013-04-14 17:14:00,74.0,48.2,29.77,WSW,238,0.0,7.0,40,0.00,,CLR,0.00,VWS V14.00,2013-04-15 00:14:00,
2013-04-14 17:19:00,73.1,48.0,29.77,SW,232,0.0,7.0,41,0.00,,CLR,0.00,VWS V14.00,2013-04-15 00:19:00,
2013-04-14 17:24:00,72.5,48.1,29.77,SSW,207,0.0,7.0,42,0.00,,CLR,0.00,VWS V14.00,2013-04-15 00:24:00,
2013-04-14 17:29:00,72.2,48.5,29.77,SSW,193,0.0,7.0,43,0.00,,CLR,0.00,VWS V14.00,2013-04-15 00:29:00,
2013-04-14 17:30:00,72.0,48.9,29.77,SSW,196,1.0,7.0,44,0.00,,CLR,0.00,VWS V14.00,2013-04-15 00:30:00,
2013-04-14 17:34:00,71.9,49.4,29.77,West,269,0.0,4.0,45,0.00,,CLR,0.00,VWS V14.00,2013-04-15 00:34:00,
2013-04-14 17:39:00,71.6,49.2,29.77,SW,235,0.0,4.0,45,0.00,,CLR,0.00,VWS V14.00,2013-04-15 00:39:00,
2013-04-14 17:44:00,71.4,49.0,29.77,SW,235,0.0,4.0,45,0.00,,CLR,0.00,VWS V14.00,2013-04-15 00:44:00,
2013-04-14 17:49:00,71.3,48.9,29.77,SW,234,0.0,4.0,45,0.00,,CLR,0.00,VWS V14.00,2013-04-15 00:49:00,
2013-04-14 17:54:00,70.9,49.1,29.77,South,186,0.0,4.0,46,0.00,,CLR,0.00,VWS V14.00,2013-04-15 00:54:00,
2013-04-14 17:59:00,70.3,49.7,29.78,South,176,0.0,4.0,48,0.00,,CLR,0.00,VWS V14.00,2013-04-15 00:59:00,
2013-04-14 18:00:00,70.4,49.8,29.78,South,178,0.0,4.0,48,0.00,,CLR,0.00,VWS V14.00,2013-04-15 01:00:00,
2013-04-14 18:05:00,69.6,49.1,29.78,NW,323,1.0,7.0,48,0.00,,CLR,0.00,VWS V14.00,2013-04-15 01:05:00,
2013-04-14 18:10:00,69.1,48.6,29.78,South,182,0.0,7.0,48,0.00,,CLR,0.00,VWS V14.00,2013-04-15 01:10:00,
2013-04-14 18:15:00,68.4,48.0,29.78,WSW,255,0.0,7.0,48,0.00,,CLR,0.00,VWS V14.00,2013-04-15 01:15:00,
2013-04-14 18:20:00,67.8,48.0,29.77,WSW,240,0.0,7.0,49,0.00,,CLR,0.00,VWS V14.00,2013-04-15 01:20:00,
2013-04-14 18:25:00,67.6,48.3,29.78,West,267,0.0,7.0,50,0.00,,CLR,0.00,VWS V14.00,2013-04-15 01:25:00,
2013-04-14 18:30:00,67.0,48.3,29.78,NW,319,0.0,0.0,51,0.00,,CLR,0.00,VWS V14.00,2013-04-15 01:30:00,
2013-04-14 18:35:00,66.6,48.4,29.78,SW,219,0.0,1.0,52,0.00,,CLR,0.00,VWS V14.00,2013-04-15 01:35:00,
2013-04-14 18:40:00,66.0,48.4,29.78,SSW,213,0.0,1.0,53,0.00,,CLR,0.00,VWS V14.00,2013-04-15 01:40:00,
2013-04-14 18:45:00,65.7,48.6,29.79,WNW,295,0.0,2.0,54,0.00,,CLR,0.00,VWS V14.00,2013-04-15 01:45:00,
2013-04-14 18:50:00,65.0,48.0,29.78,WNW,294,0.0,2.0,54,0.00,,CLR,0.00,VWS V14.00,2013-04-15 01:50:00,
2013-04-14 18:55:00,64.7,48.2,29.79,WNW,292,0.0,2.0,55,0.00,,CLR,0.00,VWS V14.00,2013-04-15 01:55:00,
2013-04-14 19:00:00,64.2,48.2,29.79,NW,314,0.0,0.0,56,0.00,,CLR,0.00,VWS V14.00,2013-04-15 02:00:00,
2013-04-14 19:05:00,64.0,48.5,29.79,WNW,293,0.0,1.0,57,0.00,,CLR,0.00,VWS V14.00,2013-04-15 02:05:00,
2013-04-14 19:10:00,63.3,48.3,29.79,WSW,245,1.0,2.0,58,0.00,,CLR,0.00,VWS V14.00,2013-04-15 02:10:00,
2013-04-14 19:15:00,62.8,48.3,29.79,NNW,343,1.0,2.0,59,0.00,,CLR,0.00,VWS V14.00,2013-04-15 02:15:00,
2013-04-14 19:20:00,62.5,48.4,29.79,WSW,242,0.0,3.0,60,0.00,,CLR,0.00,VWS V14.00,2013-04-15 02:20:00,
2013-04-14 19:25:00,61.6,48.0,29.79,SSW,207,0.0,3.0,61,0.00,,CLR,0.00,VWS V14.00,2013-04-15 02:25:00,
2013-04-14 19:30:00,61.2,48.5,29.79,WSW,242,0.0,1.0,63,0.00,,CLR,0.00,VWS V14.00,2013-04-15 02:30:00,
2013-04-14 19:35:00,60.6,48.0,29.79,SW,233,0.0,2.0,63,0.00,,CLR,0.00,VWS V14.00,2013-04-15 02:35:00,
2013-04-14 19:40:00,60.3,48.1,29.79,West,270,0.0,2.0,64,0.00,,CLR,0.00,VWS V14.00,2013-04-15 02:40:00,
2013-04-14 19:45:00,60.0,48.2,29.78,SSW,206,1.0,2.0,65,0.00,,CLR,0.00,VWS V14.00,2013-04-15 02:45:00,
2013-04-14 19:50:00,59.4,48.5,29.78,SW,230,0.0,4.0,67,0.00,,CLR,0.00,VWS V14.00,2013-04-15 02:50:00,
2013-04-14 19:55:00,58.9,48.0,29.78,NW,319,0.0,4.0,67,0.00,,CLR,0.00,VWS V14.00,2013-04-15 02:55:00,
2013-04-14 20:00:00,58.5,48.0,29.79,SW,231,0.0,0.0,68,0.00,,CLR,0.00,VWS V14.00,2013-04-15 03:00:00,
2013-04-14 20:05:00,58.1,48.0,29.79,West,280,0.0,1.0,69,0.00,,CLR,0.00,VWS V14.00,2013-04-15 03:05:00,
2013-04-14 20:10:00,58.1,48.0,29.79,NNW,332,0.0,1.0,69,0.00,,CLR,0.00,VWS V14.00,2013-04-15 03:10:00,
2013-04-14 20:15:00,57.9,48.2,29.79,SSW,200,0.0,1.0,70,0.00,,CLR,0.00,VWS V14.00,2013-04-15 03:15:00,
2013-04-14 20:20:00,57.7,48.0,29.79,NNW,335,0.0,4.0,70,0.00,,CLR,0.00,VWS V14.00,2013-04-15 03:20:00,
2013-04-14 20:25:00,57.4,48.1,29.79,SSW,208,0.0,4.0,71,0.00,,CLR,0.00,VWS V14.00,2013-04-15 03:25:00,
2013-04-14 20:30:00,56.9,48.0,29.78,SSW,211,0.0,0.0,72,0.00,,CLR,0.00,VWS V14.00,2013-04-15 03:30:00,
2013-04-14 20:35:00,56.9,48.3,29.79,SW,231,1.0,5.0,73,0.00,,CLR,0.00,VWS V14.00,2013-04-15 03:35:00,
2013-04-14 20:40:00,56.4,47.9,29.78,WSW,241,0.0,5.0,73,0.00,,CLR,0.00,VWS V14.00,2013-04-15 03:40:00,
2013-04-14 20:45:00,56.3,48.1,29.78,NW,323,1.0,5.0,74,0.00,,CLR,0.00,VWS V14.00,2013-04-15 03:45:00,
2013-04-14 20:50:00,56.3,48.1,29.79,WSW,248,0.0,5.0,74,0.00,,CLR,0.00,VWS V14.00,2013-04-15 03:50:00,
2013-04-14 20:55:00,56.2,48.4,29.79,SSW,209,0.0,5.0,75,0.00,,CLR,0.00,VWS V14.00,2013-04-15 03:55:00,
2013-04-14 21:00:00,55.8,48.4,29.79,SSE,153,0.0,5.0,76,0.00,,CLR,0.00,VWS V14.00,2013-04-15 04:00:00,
2013-04-14 21:05:00,55.8,48.4,29.80,SSE,163,0.0,5.0,76,0.00,,CLR,0.00,VWS V14.00,2013-04-15 04:05:00,
2013-04-14 21:10:00,55.7,48.3,29.80,SSW,204,0.0,5.0,76,0.00,,CLR,0.00,VWS V14.00,2013-04-15 04:10:00,
2013-04-14 21:15:00,55.6,48.2,29.80,SSW,213,0.0,5.0,76,0.00,,CLR,0.00,VWS V14.00,2013-04-15 04:15:00,
2013-04-14 21:20:00,55.5,48.1,29.80,SW,216,0.0,5.0,76,0.00,,CLR,0.00,VWS V14.00,2013-04-15 04:20:00,
2013-04-14 21:25:00,55.4,48.3,29.80,SW,220,3.0,5.0,77,0.00,,CLR,0.00,VWS V14.00,2013-04-15 04:25:00,
2013-04-14 21:30:00,55.0,47.9,29.80,NNW,337,0.0,0.0,77,0.00,,CLR,0.00,VWS V14.00,2013-04-15 04:30:00,
2013-04-14 21:35:00,55.2,48.5,29.80,North,0,0.0,3.0,78,0.00,,CLR,0.00,VWS V14.00,2013-04-15 04:35:00,
2013-04-14 21:40:00,54.9,48.2,29.80,NNW,346,0.0,3.0,78,0.00,,CLR,0.00,VWS V14.00,2013-04-15 04:40:00,
2013-04-14 21:45:00,54.6,47.9,29.80,SSW,212,0.0,3.0,78,0.00,,CLR,0.00,VWS V14.00,2013-04-15 04:45:00,
2013-04-14 21:50:00,54.5,47.8,29.81,SW,218,0.0,3.0,78,0.00,,CLR,0.00,VWS V14.00,2013-04-15 04:50:00,
2013-04-14 21:55:00,54.1,47.7,29.81,SSW,213,0.0,3.0,79,0.00,,CLR,0.00,VWS V14.00,2013-04-15 04:55:00,
2013-04-14 22:00:00,54.1,47.7,29.81,SW,235,0.0,0.0,79,0.00,,CLR,0.00,VWS V14.00,2013-04-15 05:00:00,
2013-04-14 22:05:00,54.1,48.1,29.81,NNW,330,0.0,1.0,80,0.00,,CLR,0.00,VWS V14.00,2013-04-15 05:05:00,
2013-04-14 22:10:00,54.1,48.1,29.80,South,189,1.0,6.0,80,0.00,,CLR,0.00,VWS V14.00,2013-04-15 05:10:00,
2013-04-14 22:15:00,54.0,48.0,29.81,WSW,244,0.0,6.0,80,0.00,,CLR,0.00,VWS V14.00,2013-04-15 05:15:00,
2013-04-14 22:20:00,53.8,48.1,29.81,WSW,238,0.0,6.0,81,0.00,,CLR,0.00,VWS V14.00,2013-04-15 05:20:00,
2013-04-14 22:25:00,53.9,48.5,29.81,WSW,238,0.0,6.0,82,0.00,,CLR,0.00,VWS V14.00,2013-04-15 05:25:00,
2013-04-14 22:30:00,54.0,48.3,29.81,WSW,238,0.0,0.0,81,0.00,,CLR,0.00,VWS V14.00,2013-04-15 05:30:00,
2013-04-14 22:35:00,54.0,48.3,29.81,SW,227,0.0,3.0,81,0.00,,CLR,0.00,VWS V14.00,2013-04-15 05:35:00,
2013-04-14 22:40:00,54.0,48.6,29.81,South,174,1.0,4.0,82,0.00,,CLR,0.00,VWS V14.00,2013-04-15 05:40:00,
2013-04-14 22:45:00,53.7,48.3,29.81,SSW,207,0.0,4.0,82,0.00,,BKN023,0.00,VWS V14.00,2013-04-15 05:45:00,
2013-04-14 22:50:00,53.5,48.5,29.81,South,185,0.0,4.0,83,0.00,,BKN023,0.00,VWS V14.00,2013-04-15 05:50:00,
2013-04-14 22:55:00,53.3,48.3,29.81,WSW,250,0.0,4.0,83,0.00,,BKN023,0.00,VWS V14.00,2013-04-15 05:55:00,
2013-04-14 23:00:00,53.1,48.4,29.80,SSW,192,0.0,2.0,84,0.00,,BKN023,0.00,VWS V14.00,2013-04-15 06:00:00,
2013-04-14 23:05:00,53.2,48.5,29.80,SW,220,0.0,2.0,84,0.00,,BKN023,0.00,VWS V14.00,2013-04-15 06:05:00,
2013-04-14 23:10:00,53.2,48.8,29.80,SW,223,0.0,2.0,85,0.00,,BKN023,0.00,VWS V14.00,2013-04-15 06:10:00,
2013-04-14 23:15:00,53.0,48.6,29.80,SW,219,0.0,2.0,85,0.00,,BKN023,0.00,VWS V14.00,2013-04-15 06:15:00,
2013-04-14 23:20:00,53.1,48.7,29.80,SSW,203,0.0,5.0,85,0.00,,BKN023,0.00,VWS V14.00,2013-04-15 06:20:00,
2013-04-14 23:25:00,52.9,48.5,29.80,SSW,207,0.0,5.0,85,0.00,,BKN023,0.00,VWS V14.00,2013-04-15 06:25:00,
2013-04-14 23:30:00,52.8,48.7,29.81,SW,227,0.0,1.0,86,0.00,,BKN023,0.00,VWS V14.00,2013-04-15 06:30:00,
2013-04-14 23:35:00,52.8,48.7,29.80,SW,222,0.0,1.0,86,0.00,,BKN023,0.00,VWS V14.00,2013-04-15 06:35:00,
2013-04-14 23:40:00,52.8,48.7,29.80,SW,215,0.0,3.0,86,0.00,,BKN023,0.00,VWS V14.00,2013-04-15 06:40:00,
2013-04-14 23:45:00,53.0,48.9,29.80,SSW,213,0.0,3.0,86,0.00,,OVC023,0.00,VWS V14.00,2013-04-15 06:45:00,
2013-04-14 23:50:00,53.1,49.3,29.80,SW,223,0.0,3.0,87,0.00,,OVC023,0.00,VWS V14.00,2013-04-15 06:50:00,
2013-04-14 23:55:00,52.7,49.0,29.80,WSW,255,0.0,3.0,87,0.00,,OVC023,0.00,VWS V14.00,2013-04-15 06:55:00,